JBU694 SPZO-SKBO
Flight info
| Callsign | JBU694 |
|---|---|
| Flight time | 2h 46m |
| Altitude | 34000 |
| Route | CEMIL DCT TOMIX UL300 IQT/N0467F350 UL300 POVSO/N0464F360 DCT GIR GIR5W |
| Aircraft | A321/M-SDE3FGHIRWY/LB1 |
Departure
| Time | 2026-05-08 17:16 |
|---|---|
| Airport | Alejandro Velasco Astete International Airport (SPZO) |
Arrival
| Time | 2026-05-08 20:02 |
|---|---|
| Airport | El Dorado International Airport (SKBO) |
| Time | Latitude | Longitude | Altitude | Speed | Heading |
|---|---|---|---|---|---|
| 2026-05-08 17:01 | -13.53771 | -71.94317 | 10816 ft | 0 kts | 279° |
| 2026-05-08 17:08 | -13.53771 | -71.94313 | 10815 ft | 2 kts | 279° |
| 2026-05-08 17:08 | -13.53774 | -71.94295 | 10816 ft | 3 kts | 279° |
| 2026-05-08 17:09 | -13.53778 | -71.94274 | 10817 ft | 3 kts | 279° |
| 2026-05-08 17:09 | -13.53781 | -71.94254 | 10817 ft | 3 kts | 279° |
| 2026-05-08 17:09 | -13.53781 | -71.94253 | 10817 ft | 0 kts | 279° |
| 2026-05-08 17:11 | -13.53780 | -71.94258 | 10817 ft | 3 kts | 279° |
| 2026-05-08 17:11 | -13.53769 | -71.94274 | 10816 ft | 3 kts | 338° |
| 2026-05-08 17:12 | -13.53728 | -71.94262 | 10817 ft | 9 kts | 15° |
| 2026-05-08 17:12 | -13.53676 | -71.94202 | 10817 ft | 14 kts | 65° |
| 2026-05-08 17:12 | -13.53633 | -71.94092 | 10811 ft | 17 kts | 68° |
| 2026-05-08 17:12 | -13.53580 | -71.93956 | 10805 ft | 24 kts | 80° |
| 2026-05-08 17:13 | -13.53588 | -71.93763 | 10801 ft | 30 kts | 95° |
| 2026-05-08 17:13 | -13.53610 | -71.93534 | 10782 ft | 36 kts | 96° |
| 2026-05-08 17:13 | -13.53636 | -71.93254 | 10763 ft | 42 kts | 96° |
| 2026-05-08 17:13 | -13.53666 | -71.92992 | 10749 ft | 35 kts | 96° |
| 2026-05-08 17:14 | -13.53692 | -71.92722 | 10733 ft | 41 kts | 95° |
| 2026-05-08 17:14 | -13.53722 | -71.92466 | 10717 ft | 26 kts | 99° |
| 2026-05-08 17:14 | -13.53742 | -71.92349 | 10709 ft | 8 kts | 91° |
| 2026-05-08 17:14 | -13.53728 | -71.92353 | 10709 ft | 2 kts | 287° |
| 2026-05-08 17:15 | -13.53728 | -71.92362 | 10710 ft | 0 kts | 276° |
| 2026-05-08 17:15 | -13.53728 | -71.92363 | 10710 ft | 0 kts | 276° |
| 2026-05-08 17:15 | -13.53704 | -71.92585 | 10724 ft | 62 kts | 276° |
| 2026-05-08 17:16 | -13.53640 | -71.93218 | 10761 ft | 114 kts | 276° |
| 2026-05-08 17:16 | -13.53542 | -71.94181 | 10815 ft | 156 kts | 276° |
| 2026-05-08 17:16 | -13.53417 | -71.95397 | 10973 ft | 178 kts | 276° |
| 2026-05-08 17:16 | -13.53291 | -71.96640 | 11555 ft | 177 kts | 277° |
| 2026-05-08 17:17 | -13.53163 | -71.97900 | 12116 ft | 177 kts | 277° |
| 2026-05-08 17:17 | -13.52987 | -71.99154 | 12589 ft | 179 kts | 288° |
| 2026-05-08 17:17 | -13.52208 | -72.00138 | 12732 ft | 186 kts | 336° |
| 2026-05-08 17:17 | -13.50941 | -72.00240 | 12935 ft | 187 kts | 13° |
| 2026-05-08 17:18 | -13.49737 | -71.99697 | 13143 ft | 192 kts | 33° |
| 2026-05-08 17:18 | -13.48604 | -71.98958 | 13330 ft | 195 kts | 31° |
| 2026-05-08 17:18 | -13.47443 | -71.98217 | 13541 ft | 198 kts | 31° |
| 2026-05-08 17:18 | -13.46293 | -71.97431 | 13759 ft | 200 kts | 35° |
| 2026-05-08 17:19 | -13.45096 | -71.96694 | 13986 ft | 201 kts | 21° |
| 2026-05-08 17:19 | -13.43832 | -71.96110 | 14277 ft | 200 kts | 31° |
| 2026-05-08 17:19 | -13.42649 | -71.95320 | 14443 ft | 205 kts | 32° |
| 2026-05-08 17:19 | -13.41421 | -71.94513 | 14543 ft | 217 kts | 31° |
| 2026-05-08 17:20 | -13.40091 | -71.93664 | 14645 ft | 231 kts | 31° |
| 2026-05-08 17:20 | -13.38689 | -71.92781 | 14776 ft | 242 kts | 31° |
| 2026-05-08 17:20 | -13.37218 | -71.91858 | 14922 ft | 252 kts | 31° |
| 2026-05-08 17:20 | -13.35689 | -71.90901 | 15079 ft | 262 kts | 31° |
| 2026-05-08 17:21 | -13.34105 | -71.89909 | 15209 ft | 271 kts | 31° |
| 2026-05-08 17:21 | -13.32464 | -71.88881 | 15324 ft | 283 kts | 31° |
| 2026-05-08 17:21 | -13.30751 | -71.87810 | 15445 ft | 294 kts | 31° |
| 2026-05-08 17:21 | -13.28966 | -71.86695 | 15564 ft | 307 kts | 31° |
| 2026-05-08 17:22 | -13.27093 | -71.85522 | 15735 ft | 323 kts | 31° |
| 2026-05-08 17:22 | -13.25158 | -71.84306 | 16097 ft | 329 kts | 31° |
| 2026-05-08 17:22 | -13.23195 | -71.83074 | 16637 ft | 332 kts | 31° |
| 2026-05-08 17:22 | -13.21212 | -71.81828 | 17114 ft | 335 kts | 31° |
| 2026-05-08 17:23 | -13.19220 | -71.80574 | 17617 ft | 337 kts | 31° |
| 2026-05-08 17:23 | -13.17208 | -71.79312 | 18137 ft | 340 kts | 31° |
| 2026-05-08 17:23 | -13.15184 | -71.78044 | 18653 ft | 342 kts | 31° |
| 2026-05-08 17:23 | -13.13144 | -71.76767 | 19148 ft | 345 kts | 31° |
| 2026-05-08 17:24 | -13.11115 | -71.75498 | 19619 ft | 347 kts | 31° |
| 2026-05-08 17:24 | -13.09042 | -71.74203 | 20103 ft | 349 kts | 31° |
| 2026-05-08 17:24 | -13.06962 | -71.72901 | 20575 ft | 352 kts | 31° |
| 2026-05-08 17:24 | -13.04861 | -71.71585 | 21010 ft | 355 kts | 31° |
| 2026-05-08 17:25 | -13.02743 | -71.70257 | 21431 ft | 358 kts | 31° |
| 2026-05-08 17:25 | -13.00605 | -71.68916 | 21741 ft | 365 kts | 31° |
| 2026-05-08 17:25 | -12.98401 | -71.67537 | 21872 ft | 377 kts | 31° |
| 2026-05-08 17:25 | -12.96128 | -71.66118 | 22003 ft | 388 kts | 31° |
| 2026-05-08 17:26 | -12.93794 | -71.64661 | 22130 ft | 399 kts | 31° |
| 2026-05-08 17:26 | -12.91397 | -71.63165 | 22255 ft | 409 kts | 31° |
| 2026-05-08 17:26 | -12.88935 | -71.61629 | 22382 ft | 419 kts | 31° |
| 2026-05-08 17:26 | -12.86414 | -71.60055 | 22509 ft | 429 kts | 31° |
| 2026-05-08 17:27 | -12.83842 | -71.58446 | 22635 ft | 438 kts | 31° |
| 2026-05-08 17:27 | -12.81217 | -71.56806 | 22762 ft | 445 kts | 30° |
| 2026-05-08 17:27 | -12.78413 | -71.55401 | 22889 ft | 452 kts | 20° |
| 2026-05-08 17:27 | -12.75374 | -71.54481 | 23015 ft | 458 kts | 11° |
| 2026-05-08 17:28 | -12.72196 | -71.54096 | 23142 ft | 463 kts | 1° |
| 2026-05-08 17:28 | -12.68965 | -71.54262 | 23290 ft | 468 kts | 351° |
| 2026-05-08 17:28 | -12.65790 | -71.54881 | 23538 ft | 470 kts | 348° |
| 2026-05-08 17:28 | -12.62547 | -71.55552 | 23831 ft | 472 kts | 348° |
| 2026-05-08 17:29 | -12.59317 | -71.56211 | 24117 ft | 474 kts | 348° |
| 2026-05-08 17:29 | -12.56078 | -71.56869 | 24401 ft | 476 kts | 348° |
| 2026-05-08 17:29 | -12.52824 | -71.57531 | 24693 ft | 477 kts | 348° |
| 2026-05-08 17:29 | -12.49561 | -71.58195 | 24980 ft | 479 kts | 348° |
| 2026-05-08 17:30 | -12.46285 | -71.58868 | 25271 ft | 481 kts | 348° |
| 2026-05-08 17:30 | -12.42991 | -71.59547 | 25576 ft | 483 kts | 348° |
| 2026-05-08 17:30 | -12.39695 | -71.60225 | 25876 ft | 485 kts | 348° |
| 2026-05-08 17:30 | -12.36375 | -71.60908 | 26160 ft | 486 kts | 348° |
| 2026-05-08 17:31 | -12.33094 | -71.61580 | 26525 ft | 486 kts | 348° |
| 2026-05-08 17:31 | -12.29789 | -71.62257 | 26939 ft | 484 kts | 348° |
| 2026-05-08 17:31 | -12.26491 | -71.62933 | 27349 ft | 483 kts | 347° |
| 2026-05-08 17:31 | -12.23203 | -71.63611 | 27757 ft | 481 kts | 347° |
| 2026-05-08 17:32 | -12.19924 | -71.64289 | 28169 ft | 480 kts | 347° |
| 2026-05-08 17:32 | -12.16655 | -71.64963 | 28572 ft | 479 kts | 347° |
| 2026-05-08 17:32 | -12.13388 | -71.65632 | 28975 ft | 478 kts | 347° |
| 2026-05-08 17:32 | -12.10134 | -71.66295 | 29381 ft | 476 kts | 347° |
| 2026-05-08 17:33 | -12.06889 | -71.66958 | 29789 ft | 475 kts | 347° |
| 2026-05-08 17:33 | -12.03655 | -71.67623 | 30191 ft | 474 kts | 347° |
| 2026-05-08 17:33 | -12.01514 | -71.68064 | 30458 ft | 473 kts | 347° |
| 2026-05-08 17:33 | -11.98250 | -71.68735 | 30855 ft | 472 kts | 347° |
| 2026-05-08 17:34 | -11.95075 | -71.69388 | 31236 ft | 471 kts | 346° |
| 2026-05-08 17:34 | -11.91825 | -71.70056 | 31613 ft | 470 kts | 346° |
| 2026-05-08 17:34 | -11.88621 | -71.70714 | 31979 ft | 469 kts | 346° |
| 2026-05-08 17:34 | -11.85426 | -71.71366 | 32351 ft | 468 kts | 346° |
| 2026-05-08 17:35 | -11.82277 | -71.72007 | 32710 ft | 467 kts | 345° |
| 2026-05-08 17:35 | -11.79092 | -71.72658 | 33062 ft | 466 kts | 345° |
| 2026-05-08 17:35 | -11.75914 | -71.73309 | 33408 ft | 465 kts | 345° |
| 2026-05-08 17:35 | -11.72740 | -71.73961 | 33739 ft | 465 kts | 345° |
| 2026-05-08 17:36 | -11.69568 | -71.74611 | 34077 ft | 464 kts | 344° |
| 2026-05-08 17:36 | -11.66407 | -71.75256 | 34411 ft | 463 kts | 344° |
| 2026-05-08 17:36 | -11.63251 | -71.75901 | 34744 ft | 462 kts | 344° |
| 2026-05-08 17:36 | -11.60102 | -71.76545 | 35053 ft | 461 kts | 344° |
| 2026-05-08 17:37 | -11.56957 | -71.77187 | 35371 ft | 461 kts | 343° |
| 2026-05-08 17:37 | -11.53820 | -71.77828 | 35682 ft | 460 kts | 343° |
| 2026-05-08 17:37 | -11.50682 | -71.78472 | 35982 ft | 459 kts | 343° |
| 2026-05-08 17:37 | -11.47551 | -71.79113 | 36268 ft | 459 kts | 343° |
| 2026-05-08 17:38 | -11.44426 | -71.79750 | 36543 ft | 458 kts | 343° |
| 2026-05-08 17:38 | -11.41302 | -71.80387 | 36794 ft | 458 kts | 343° |
| 2026-05-08 17:38 | -11.38179 | -71.81022 | 37013 ft | 458 kts | 343° |
| 2026-05-08 17:38 | -11.35048 | -71.81660 | 37095 ft | 460 kts | 343° |
| 2026-05-08 17:39 | -11.28745 | -71.82950 | 37099 ft | 463 kts | 343° |
| 2026-05-08 17:39 | -11.22422 | -71.84243 | 37093 ft | 463 kts | 343° |
| 2026-05-08 17:40 | -11.16108 | -71.85523 | 37080 ft | 462 kts | 343° |
| 2026-05-08 17:40 | -11.09804 | -71.86807 | 37082 ft | 462 kts | 343° |
| 2026-05-08 17:41 | -11.03506 | -71.88095 | 37086 ft | 462 kts | 343° |
| 2026-05-08 17:41 | -10.97198 | -71.89379 | 37094 ft | 462 kts | 343° |
| 2026-05-08 17:42 | -10.90894 | -71.90663 | 37108 ft | 462 kts | 343° |
| 2026-05-08 17:42 | -10.84575 | -71.91945 | 37110 ft | 462 kts | 343° |
| 2026-05-08 17:43 | -10.78270 | -71.93228 | 37108 ft | 462 kts | 343° |
| 2026-05-08 17:43 | -10.71959 | -71.94508 | 37106 ft | 462 kts | 343° |
| 2026-05-08 17:44 | -10.65660 | -71.95784 | 37102 ft | 461 kts | 343° |
| 2026-05-08 17:44 | -10.59368 | -71.97062 | 37095 ft | 461 kts | 343° |
| 2026-05-08 17:45 | -10.53120 | -71.98331 | 37101 ft | 460 kts | 343° |
| 2026-05-08 17:45 | -10.46842 | -71.99611 | 37127 ft | 460 kts | 343° |
| 2026-05-08 17:46 | -10.40563 | -72.00892 | 37153 ft | 460 kts | 343° |
| 2026-05-08 17:46 | -10.34282 | -72.02164 | 37164 ft | 460 kts | 343° |
| 2026-05-08 17:47 | -10.28002 | -72.03435 | 37165 ft | 460 kts | 343° |
| 2026-05-08 17:47 | -10.22789 | -72.04486 | 37162 ft | 460 kts | 343° |
| 2026-05-08 17:48 | -10.15443 | -72.05977 | 37157 ft | 460 kts | 343° |
| 2026-05-08 17:48 | -10.09202 | -72.07244 | 37141 ft | 460 kts | 343° |
| 2026-05-08 17:49 | -10.02929 | -72.08508 | 37101 ft | 459 kts | 343° |
| 2026-05-08 17:49 | -9.96656 | -72.09771 | 37066 ft | 459 kts | 343° |
| 2026-05-08 17:50 | -9.90381 | -72.11011 | 37023 ft | 459 kts | 343° |
| 2026-05-08 17:50 | -9.84117 | -72.12250 | 37012 ft | 459 kts | 343° |
| 2026-05-08 17:51 | -9.77836 | -72.13492 | 37004 ft | 460 kts | 343° |
| 2026-05-08 17:51 | -9.71556 | -72.14740 | 37001 ft | 460 kts | 343° |
| 2026-05-08 17:52 | -9.65267 | -72.15988 | 36999 ft | 461 kts | 343° |
| 2026-05-08 17:53 | -9.55821 | -72.17852 | 36994 ft | 461 kts | 343° |
| 2026-05-08 17:53 | -9.49513 | -72.19088 | 36990 ft | 461 kts | 343° |
| 2026-05-08 17:54 | -9.43200 | -72.20294 | 36989 ft | 462 kts | 344° |
| 2026-05-08 17:54 | -9.36870 | -72.21474 | 36988 ft | 462 kts | 344° |
| 2026-05-08 17:55 | -9.30586 | -72.22658 | 36988 ft | 463 kts | 343° |
| 2026-05-08 17:55 | -9.24252 | -72.23862 | 36988 ft | 463 kts | 343° |
| 2026-05-08 17:56 | -9.17869 | -72.25070 | 36988 ft | 464 kts | 344° |
| 2026-05-08 17:56 | -9.11562 | -72.26264 | 36987 ft | 464 kts | 343° |
| 2026-05-08 17:57 | -9.05219 | -72.27467 | 36986 ft | 464 kts | 344° |
| 2026-05-08 17:57 | -8.98865 | -72.28664 | 36985 ft | 464 kts | 344° |
| 2026-05-08 17:58 | -8.92511 | -72.29892 | 36981 ft | 464 kts | 343° |
| 2026-05-08 17:58 | -8.86179 | -72.31209 | 36984 ft | 465 kts | 343° |
| 2026-05-08 17:59 | -8.79842 | -72.32534 | 36979 ft | 465 kts | 343° |
| 2026-05-08 17:59 | -8.73482 | -72.33831 | 36982 ft | 466 kts | 343° |
| 2026-05-08 18:00 | -8.67127 | -72.35128 | 36982 ft | 466 kts | 343° |
| 2026-05-08 18:00 | -8.57629 | -72.37079 | 36980 ft | 467 kts | 343° |
| 2026-05-08 18:01 | -8.51265 | -72.38389 | 36972 ft | 467 kts | 343° |
| 2026-05-08 18:01 | -8.44896 | -72.39690 | 36967 ft | 467 kts | 343° |
| 2026-05-08 18:02 | -8.39564 | -72.40773 | 36966 ft | 467 kts | 343° |
| 2026-05-08 18:02 | -8.32166 | -72.42285 | 36966 ft | 467 kts | 343° |
| 2026-05-08 18:03 | -8.25803 | -72.43591 | 36966 ft | 467 kts | 343° |
| 2026-05-08 18:03 | -8.19430 | -72.44903 | 36967 ft | 467 kts | 343° |
| 2026-05-08 18:04 | -8.13059 | -72.46206 | 36970 ft | 467 kts | 343° |
| 2026-05-08 18:04 | -8.06687 | -72.47501 | 36966 ft | 467 kts | 343° |
| 2026-05-08 18:05 | -8.00325 | -72.48799 | 36966 ft | 467 kts | 343° |
| 2026-05-08 18:05 | -7.93959 | -72.50100 | 36964 ft | 466 kts | 343° |
| 2026-05-08 18:06 | -7.87602 | -72.51397 | 36971 ft | 465 kts | 343° |
| 2026-05-08 18:06 | -7.81256 | -72.52690 | 36971 ft | 465 kts | 343° |
| 2026-05-08 18:07 | -7.74913 | -72.53988 | 36971 ft | 465 kts | 343° |
| 2026-05-08 18:07 | -7.68579 | -72.55273 | 36966 ft | 464 kts | 343° |
| 2026-05-08 18:08 | -7.62231 | -72.56535 | 36965 ft | 465 kts | 343° |
| 2026-05-08 18:08 | -7.55880 | -72.57789 | 36967 ft | 465 kts | 343° |
| 2026-05-08 18:09 | -7.49536 | -72.59046 | 36967 ft | 465 kts | 343° |
| 2026-05-08 18:09 | -7.43193 | -72.60309 | 36967 ft | 464 kts | 343° |
| 2026-05-08 18:10 | -7.36857 | -72.61569 | 36968 ft | 464 kts | 343° |
| 2026-05-08 18:10 | -7.30507 | -72.62831 | 36967 ft | 465 kts | 343° |
| 2026-05-08 18:11 | -7.24162 | -72.64094 | 36966 ft | 464 kts | 343° |
| 2026-05-08 18:11 | -7.17812 | -72.65349 | 36966 ft | 465 kts | 344° |
| 2026-05-08 18:12 | -7.11504 | -72.66593 | 36967 ft | 464 kts | 344° |
| 2026-05-08 18:12 | -7.05165 | -72.67859 | 36967 ft | 464 kts | 344° |
| 2026-05-08 18:13 | -6.98828 | -72.69116 | 36967 ft | 464 kts | 344° |
| 2026-05-08 18:13 | -6.92485 | -72.70366 | 36968 ft | 464 kts | 344° |
| 2026-05-08 18:14 | -6.86152 | -72.71626 | 36963 ft | 464 kts | 344° |
| 2026-05-08 18:14 | -6.79827 | -72.72885 | 36962 ft | 464 kts | 344° |
| 2026-05-08 18:15 | -6.73483 | -72.74141 | 36961 ft | 464 kts | 344° |
| 2026-05-08 18:15 | -6.67141 | -72.75389 | 36960 ft | 464 kts | 344° |
| 2026-05-08 18:16 | -6.61872 | -72.76430 | 36961 ft | 465 kts | 344° |
| 2026-05-08 18:16 | -6.55526 | -72.77696 | 36961 ft | 465 kts | 344° |
| 2026-05-08 18:17 | -6.49180 | -72.78952 | 36960 ft | 465 kts | 344° |
| 2026-05-08 18:17 | -6.42835 | -72.80201 | 36956 ft | 464 kts | 344° |
| 2026-05-08 18:18 | -6.36487 | -72.81452 | 36954 ft | 465 kts | 344° |
| 2026-05-08 18:18 | -6.30148 | -72.82708 | 36952 ft | 465 kts | 344° |
| 2026-05-08 18:19 | -6.23808 | -72.83968 | 36951 ft | 464 kts | 344° |
| 2026-05-08 18:19 | -6.17471 | -72.85227 | 36948 ft | 464 kts | 344° |
| 2026-05-08 18:20 | -6.11134 | -72.86480 | 36947 ft | 464 kts | 344° |
| 2026-05-08 18:20 | -6.04786 | -72.87736 | 36943 ft | 464 kts | 344° |
| 2026-05-08 18:21 | -5.98441 | -72.88984 | 36939 ft | 464 kts | 345° |
| 2026-05-08 18:21 | -5.92140 | -72.90221 | 36938 ft | 464 kts | 345° |
| 2026-05-08 18:22 | -5.85810 | -72.91463 | 36938 ft | 463 kts | 345° |
| 2026-05-08 18:22 | -5.79483 | -72.92714 | 36939 ft | 463 kts | 345° |
| 2026-05-08 18:23 | -5.73151 | -72.93965 | 36937 ft | 463 kts | 345° |
| 2026-05-08 18:23 | -5.66837 | -72.95218 | 36933 ft | 463 kts | 345° |
| 2026-05-08 18:24 | -5.60514 | -72.96467 | 36930 ft | 463 kts | 345° |
| 2026-05-08 18:24 | -5.54182 | -72.97700 | 36930 ft | 463 kts | 345° |
| 2026-05-08 18:25 | -5.47850 | -72.98930 | 36930 ft | 463 kts | 345° |
| 2026-05-08 18:25 | -5.41523 | -73.00173 | 36930 ft | 463 kts | 345° |
| 2026-05-08 18:26 | -5.35199 | -73.01410 | 36928 ft | 463 kts | 345° |
| 2026-05-08 18:26 | -5.28870 | -73.02637 | 36931 ft | 463 kts | 345° |
| 2026-05-08 18:27 | -5.23619 | -73.03656 | 36932 ft | 462 kts | 345° |
| 2026-05-08 18:27 | -5.16238 | -73.05100 | 36925 ft | 462 kts | 345° |
| 2026-05-08 18:28 | -5.09922 | -73.06337 | 36916 ft | 463 kts | 345° |
| 2026-05-08 18:28 | -5.03603 | -73.07566 | 36911 ft | 462 kts | 345° |
| 2026-05-08 18:29 | -4.97286 | -73.08795 | 36915 ft | 462 kts | 345° |
| 2026-05-08 18:29 | -4.91015 | -73.10019 | 36912 ft | 461 kts | 345° |
| 2026-05-08 18:30 | -4.84711 | -73.11253 | 36923 ft | 461 kts | 345° |
| 2026-05-08 18:30 | -4.78408 | -73.12483 | 36922 ft | 461 kts | 346° |
| 2026-05-08 18:31 | -4.72106 | -73.13705 | 36921 ft | 461 kts | 346° |
| 2026-05-08 18:31 | -4.65809 | -73.14925 | 36921 ft | 461 kts | 346° |
| 2026-05-08 18:32 | -4.59506 | -73.16157 | 36921 ft | 462 kts | 346° |
| 2026-05-08 18:32 | -4.53197 | -73.17385 | 36921 ft | 462 kts | 346° |
| 2026-05-08 18:33 | -4.46893 | -73.18607 | 36922 ft | 462 kts | 346° |
| 2026-05-08 18:33 | -4.40585 | -73.19840 | 36925 ft | 462 kts | 346° |
| 2026-05-08 18:34 | -4.34279 | -73.21077 | 36915 ft | 462 kts | 346° |
| 2026-05-08 18:34 | -4.27967 | -73.22305 | 36923 ft | 462 kts | 346° |
| 2026-05-08 18:35 | -4.21658 | -73.23526 | 36922 ft | 461 kts | 346° |
| 2026-05-08 18:35 | -4.15351 | -73.24752 | 36910 ft | 462 kts | 346° |
| 2026-05-08 18:36 | -4.09038 | -73.25983 | 36927 ft | 462 kts | 346° |
| 2026-05-08 18:36 | -4.02725 | -73.27209 | 36920 ft | 462 kts | 346° |
| 2026-05-08 18:37 | -3.96422 | -73.28443 | 36918 ft | 460 kts | 346° |
| 2026-05-08 18:37 | -3.90171 | -73.29655 | 36917 ft | 460 kts | 346° |
| 2026-05-08 18:38 | -3.83889 | -73.30873 | 36909 ft | 460 kts | 346° |
| 2026-05-08 18:38 | -3.77609 | -73.32061 | 36920 ft | 459 kts | 348° |
| 2026-05-08 18:39 | -3.71264 | -73.32874 | 36904 ft | 461 kts | 351° |
| 2026-05-08 18:39 | -3.64882 | -73.33495 | 36918 ft | 461 kts | 352° |
| 2026-05-08 18:40 | -3.58502 | -73.34158 | 36913 ft | 460 kts | 351° |
| 2026-05-08 18:40 | -3.55320 | -73.34524 | 37046 ft | 460 kts | 351° |
| 2026-05-08 18:40 | -3.52144 | -73.34902 | 37330 ft | 459 kts | 350° |
| 2026-05-08 18:41 | -3.48983 | -73.35284 | 37626 ft | 457 kts | 350° |
| 2026-05-08 18:41 | -3.45834 | -73.35663 | 37854 ft | 456 kts | 351° |
| 2026-05-08 18:41 | -3.39559 | -73.36405 | 37895 ft | 452 kts | 351° |
| 2026-05-08 18:42 | -3.33317 | -73.37120 | 37897 ft | 451 kts | 351° |
| 2026-05-08 18:42 | -3.27075 | -73.37833 | 37896 ft | 451 kts | 351° |
| 2026-05-08 18:43 | -3.20847 | -73.38560 | 37896 ft | 451 kts | 351° |
| 2026-05-08 18:43 | -3.14607 | -73.39290 | 37900 ft | 451 kts | 351° |
| 2026-05-08 18:44 | -3.08374 | -73.40019 | 37903 ft | 451 kts | 351° |
| 2026-05-08 18:44 | -3.02139 | -73.40745 | 37909 ft | 451 kts | 351° |
| 2026-05-08 18:45 | -2.95896 | -73.41471 | 37915 ft | 452 kts | 351° |
| 2026-05-08 18:45 | -2.89684 | -73.42189 | 37918 ft | 452 kts | 351° |
| 2026-05-08 18:46 | -2.83439 | -73.42914 | 37921 ft | 452 kts | 351° |
| 2026-05-08 18:46 | -2.77200 | -73.43639 | 37922 ft | 451 kts | 351° |
| 2026-05-08 18:47 | -2.70956 | -73.44366 | 37922 ft | 451 kts | 351° |
| 2026-05-08 18:47 | -2.64716 | -73.45086 | 37922 ft | 451 kts | 351° |
| 2026-05-08 18:48 | -2.58477 | -73.45807 | 37923 ft | 451 kts | 351° |
| 2026-05-08 18:48 | -2.52245 | -73.46530 | 37921 ft | 451 kts | 351° |
| 2026-05-08 18:49 | -2.46013 | -73.47259 | 37920 ft | 451 kts | 351° |
| 2026-05-08 18:49 | -2.39784 | -73.47996 | 37920 ft | 450 kts | 351° |
| 2026-05-08 18:50 | -2.33563 | -73.48722 | 37920 ft | 450 kts | 351° |
| 2026-05-08 18:50 | -2.27342 | -73.49438 | 37918 ft | 450 kts | 351° |
| 2026-05-08 18:51 | -2.21129 | -73.50154 | 37916 ft | 449 kts | 351° |
| 2026-05-08 18:51 | -2.14915 | -73.50875 | 37919 ft | 450 kts | 351° |
| 2026-05-08 18:52 | -2.08733 | -73.51586 | 37918 ft | 449 kts | 351° |
| 2026-05-08 18:52 | -2.02525 | -73.52309 | 37921 ft | 449 kts | 351° |
| 2026-05-08 18:53 | -1.96313 | -73.53034 | 37924 ft | 450 kts | 351° |
| 2026-05-08 18:53 | -1.90098 | -73.53750 | 37934 ft | 450 kts | 352° |
| 2026-05-08 18:54 | -1.83875 | -73.54473 | 37937 ft | 450 kts | 351° |
| 2026-05-08 18:54 | -1.77653 | -73.55200 | 37938 ft | 450 kts | 351° |
| 2026-05-08 18:55 | -1.68313 | -73.56276 | 37941 ft | 450 kts | 351° |
| 2026-05-08 18:56 | -1.62089 | -73.56990 | 37947 ft | 450 kts | 352° |
| 2026-05-08 18:56 | -1.55855 | -73.57709 | 37944 ft | 450 kts | 351° |
| 2026-05-08 18:57 | -1.49636 | -73.58440 | 37948 ft | 451 kts | 351° |
| 2026-05-08 18:57 | -1.43403 | -73.59171 | 37944 ft | 451 kts | 352° |
| 2026-05-08 18:58 | -1.37172 | -73.59892 | 37954 ft | 450 kts | 352° |
| 2026-05-08 18:58 | -1.30954 | -73.60609 | 37956 ft | 450 kts | 352° |
| 2026-05-08 18:59 | -1.24763 | -73.61319 | 37958 ft | 450 kts | 352° |
| 2026-05-08 18:59 | -1.18534 | -73.62044 | 37951 ft | 450 kts | 352° |
| 2026-05-08 19:00 | -1.13367 | -73.62646 | 37949 ft | 450 kts | 352° |
| 2026-05-08 19:00 | -1.06098 | -73.63493 | 37946 ft | 450 kts | 352° |
| 2026-05-08 19:01 | -1.00920 | -73.64092 | 37950 ft | 451 kts | 352° |
| 2026-05-08 19:01 | -0.94684 | -73.64811 | 37952 ft | 451 kts | 352° |
| 2026-05-08 19:02 | -0.88436 | -73.65532 | 37952 ft | 452 kts | 352° |
| 2026-05-08 19:02 | -0.82189 | -73.66254 | 37946 ft | 452 kts | 352° |
| 2026-05-08 19:03 | -0.75943 | -73.66973 | 37949 ft | 452 kts | 352° |
| 2026-05-08 19:03 | -0.69699 | -73.67695 | 37946 ft | 452 kts | 352° |
| 2026-05-08 19:04 | -0.63452 | -73.68418 | 37947 ft | 452 kts | 352° |
| 2026-05-08 19:04 | -0.57206 | -73.69146 | 37950 ft | 452 kts | 352° |
| 2026-05-08 19:05 | -0.50951 | -73.69879 | 37947 ft | 452 kts | 352° |
| 2026-05-08 19:05 | -0.44695 | -73.70607 | 37944 ft | 453 kts | 352° |
| 2026-05-08 19:06 | -0.38436 | -73.71326 | 37944 ft | 453 kts | 352° |
| 2026-05-08 19:06 | -0.32182 | -73.72047 | 37902 ft | 451 kts | 352° |
| 2026-05-08 19:07 | -0.25948 | -73.72771 | 37899 ft | 451 kts | 352° |
| 2026-05-08 19:07 | -0.19705 | -73.73494 | 37900 ft | 452 kts | 352° |
| 2026-05-08 19:08 | -0.13453 | -73.74220 | 37899 ft | 452 kts | 352° |
| 2026-05-08 19:08 | -0.07197 | -73.74943 | 37900 ft | 453 kts | 352° |
| 2026-05-08 19:09 | -0.00934 | -73.75668 | 37902 ft | 453 kts | 352° |
| 2026-05-08 19:09 | 0.05326 | -73.76396 | 37903 ft | 453 kts | 352° |
| 2026-05-08 19:10 | 0.11595 | -73.77128 | 37904 ft | 453 kts | 352° |
| 2026-05-08 19:10 | 0.17863 | -73.77851 | 37904 ft | 453 kts | 352° |
| 2026-05-08 19:11 | 0.24130 | -73.78571 | 37904 ft | 453 kts | 352° |
| 2026-05-08 19:11 | 0.30400 | -73.79291 | 37904 ft | 453 kts | 352° |
| 2026-05-08 19:12 | 0.36629 | -73.80020 | 37904 ft | 453 kts | 352° |
| 2026-05-08 19:12 | 0.42905 | -73.80750 | 37904 ft | 454 kts | 352° |
| 2026-05-08 19:13 | 0.49174 | -73.81472 | 37904 ft | 454 kts | 352° |
| 2026-05-08 19:13 | 0.55448 | -73.82195 | 37902 ft | 454 kts | 352° |
| 2026-05-08 19:14 | 0.61726 | -73.82928 | 37898 ft | 454 kts | 352° |
| 2026-05-08 19:14 | 0.68004 | -73.83661 | 37896 ft | 454 kts | 352° |
| 2026-05-08 19:15 | 0.74280 | -73.84387 | 37899 ft | 454 kts | 352° |
| 2026-05-08 19:15 | 0.80562 | -73.85116 | 37902 ft | 454 kts | 352° |
| 2026-05-08 19:16 | 0.86853 | -73.85852 | 37904 ft | 454 kts | 352° |
| 2026-05-08 19:16 | 0.93131 | -73.86588 | 37904 ft | 454 kts | 352° |
| 2026-05-08 19:17 | 0.99411 | -73.87316 | 37903 ft | 454 kts | 352° |
| 2026-05-08 19:17 | 1.05663 | -73.88034 | 37905 ft | 454 kts | 352° |
| 2026-05-08 19:18 | 1.11947 | -73.88759 | 37905 ft | 455 kts | 352° |
| 2026-05-08 19:18 | 1.18227 | -73.89490 | 37905 ft | 455 kts | 352° |
| 2026-05-08 19:19 | 1.24509 | -73.90219 | 37905 ft | 454 kts | 352° |
| 2026-05-08 19:19 | 1.30798 | -73.90945 | 37906 ft | 454 kts | 352° |
| 2026-05-08 19:20 | 1.37077 | -73.91658 | 37906 ft | 454 kts | 352° |
| 2026-05-08 19:20 | 1.43367 | -73.92388 | 37906 ft | 454 kts | 352° |
| 2026-05-08 19:21 | 1.49649 | -73.93121 | 37906 ft | 454 kts | 352° |
| 2026-05-08 19:21 | 1.55931 | -73.93856 | 37906 ft | 454 kts | 352° |
| 2026-05-08 19:22 | 1.62166 | -73.94580 | 37906 ft | 454 kts | 352° |
| 2026-05-08 19:22 | 1.68450 | -73.95306 | 37906 ft | 454 kts | 352° |
| 2026-05-08 19:23 | 1.74716 | -73.96029 | 37905 ft | 453 kts | 352° |
| 2026-05-08 19:23 | 1.80987 | -73.96758 | 37905 ft | 453 kts | 352° |
| 2026-05-08 19:24 | 1.87254 | -73.97484 | 37906 ft | 453 kts | 352° |
| 2026-05-08 19:24 | 1.93520 | -73.98215 | 37906 ft | 453 kts | 352° |
| 2026-05-08 19:25 | 1.99791 | -73.98951 | 37906 ft | 453 kts | 352° |
| 2026-05-08 19:25 | 2.06060 | -73.99684 | 37912 ft | 453 kts | 352° |
| 2026-05-08 19:26 | 2.12323 | -74.00410 | 37912 ft | 453 kts | 352° |
| 2026-05-08 19:26 | 2.18561 | -74.01127 | 37914 ft | 453 kts | 352° |
| 2026-05-08 19:27 | 2.24828 | -74.01848 | 37914 ft | 453 kts | 352° |
| 2026-05-08 19:27 | 2.31099 | -74.02569 | 37914 ft | 453 kts | 352° |
| 2026-05-08 19:28 | 2.37368 | -74.03297 | 37915 ft | 453 kts | 352° |
| 2026-05-08 19:28 | 2.43637 | -74.04024 | 37915 ft | 453 kts | 352° |
| 2026-05-08 19:29 | 2.49903 | -74.04758 | 37914 ft | 453 kts | 352° |
| 2026-05-08 19:29 | 2.56178 | -74.05490 | 37914 ft | 454 kts | 352° |
| 2026-05-08 19:30 | 2.62453 | -74.06214 | 37916 ft | 454 kts | 352° |
| 2026-05-08 19:30 | 2.68726 | -74.06945 | 37921 ft | 454 kts | 352° |
| 2026-05-08 19:31 | 2.74996 | -74.07678 | 37922 ft | 454 kts | 352° |
| 2026-05-08 19:31 | 2.81274 | -74.08405 | 37928 ft | 454 kts | 352° |
| 2026-05-08 19:32 | 2.87546 | -74.09132 | 37930 ft | 454 kts | 352° |
| 2026-05-08 19:32 | 2.93792 | -74.09857 | 37932 ft | 454 kts | 352° |
| 2026-05-08 19:33 | 3.00076 | -74.10578 | 37931 ft | 454 kts | 352° |
| 2026-05-08 19:33 | 3.06364 | -74.11306 | 37926 ft | 455 kts | 352° |
| 2026-05-08 19:34 | 3.12651 | -74.12037 | 37923 ft | 455 kts | 352° |
| 2026-05-08 19:34 | 3.18937 | -74.12775 | 37923 ft | 455 kts | 352° |
| 2026-05-08 19:35 | 3.25228 | -74.13513 | 37924 ft | 455 kts | 352° |
| 2026-05-08 19:35 | 3.31516 | -74.14241 | 37924 ft | 455 kts | 352° |
| 2026-05-08 19:36 | 3.37809 | -74.14968 | 37922 ft | 455 kts | 352° |
| 2026-05-08 19:36 | 3.44095 | -74.15709 | 37923 ft | 455 kts | 352° |
| 2026-05-08 19:37 | 3.50389 | -74.16449 | 37921 ft | 455 kts | 352° |
| 2026-05-08 19:37 | 3.56687 | -74.17175 | 37920 ft | 456 kts | 352° |
| 2026-05-08 19:38 | 3.62986 | -74.17901 | 37918 ft | 456 kts | 352° |
| 2026-05-08 19:38 | 3.69285 | -74.18636 | 37920 ft | 456 kts | 352° |
| 2026-05-08 19:39 | 3.75586 | -74.19371 | 37921 ft | 456 kts | 351° |
| 2026-05-08 19:39 | 3.81895 | -74.20103 | 37923 ft | 456 kts | 352° |
| 2026-05-08 19:40 | 3.88084 | -74.21197 | 37921 ft | 452 kts | 338° |
| 2026-05-08 19:40 | 3.90914 | -74.22531 | 37920 ft | 449 kts | 326° |
| 2026-05-08 19:40 | 3.93397 | -74.24407 | 37920 ft | 447 kts | 315° |
| 2026-05-08 19:40 | 3.95440 | -74.26735 | 37916 ft | 445 kts | 303° |
| 2026-05-08 19:41 | 3.96961 | -74.29424 | 37912 ft | 444 kts | 292° |
| 2026-05-08 19:41 | 3.99208 | -74.35177 | 37917 ft | 444 kts | 291° |
| 2026-05-08 19:42 | 4.01470 | -74.40958 | 37694 ft | 446 kts | 291° |
| 2026-05-08 19:42 | 4.02599 | -74.43846 | 37403 ft | 444 kts | 291° |
| 2026-05-08 19:42 | 4.03724 | -74.46720 | 36896 ft | 442 kts | 290° |
| 2026-05-08 19:42 | 4.04841 | -74.49582 | 36355 ft | 441 kts | 290° |
| 2026-05-08 19:43 | 4.05580 | -74.51477 | 35980 ft | 441 kts | 290° |
| 2026-05-08 19:43 | 4.07077 | -74.55326 | 34944 ft | 446 kts | 290° |
| 2026-05-08 19:43 | 4.08205 | -74.58234 | 34140 ft | 450 kts | 290° |
| 2026-05-08 19:43 | 4.09344 | -74.61172 | 33245 ft | 455 kts | 289° |
| 2026-05-08 19:44 | 4.10499 | -74.64147 | 32277 ft | 461 kts | 289° |
| 2026-05-08 19:44 | 4.11275 | -74.66142 | 31632 ft | 465 kts | 289° |
| 2026-05-08 19:44 | 4.12457 | -74.69170 | 30670 ft | 469 kts | 289° |
| 2026-05-08 19:44 | 4.13649 | -74.72228 | 29541 ft | 475 kts | 289° |
| 2026-05-08 19:45 | 4.15251 | -74.76335 | 28067 ft | 481 kts | 289° |
| 2026-05-08 19:45 | 4.16771 | -74.79331 | 27123 ft | 484 kts | 303° |
| 2026-05-08 19:45 | 4.18191 | -74.81104 | 26702 ft | 480 kts | 312° |
| 2026-05-08 19:45 | 4.21679 | -74.83790 | 25662 ft | 479 kts | 332° |
| 2026-05-08 19:46 | 4.23699 | -74.84661 | 25113 ft | 477 kts | 342° |
| 2026-05-08 19:46 | 4.26941 | -74.85296 | 24300 ft | 473 kts | 357° |
| 2026-05-08 19:46 | 4.33409 | -74.84689 | 22719 ft | 463 kts | 8° |
| 2026-05-08 19:47 | 4.36574 | -74.84267 | 22307 ft | 450 kts | 8° |
| 2026-05-08 19:47 | 4.39621 | -74.83868 | 22177 ft | 432 kts | 8° |
| 2026-05-08 19:47 | 4.42544 | -74.83490 | 22048 ft | 416 kts | 8° |
| 2026-05-08 19:47 | 4.45360 | -74.83127 | 21923 ft | 402 kts | 8° |
| 2026-05-08 19:48 | 4.48095 | -74.82772 | 21739 ft | 391 kts | 8° |
| 2026-05-08 19:48 | 4.50768 | -74.82422 | 21352 ft | 385 kts | 8° |
| 2026-05-08 19:48 | 4.53415 | -74.82073 | 20892 ft | 382 kts | 8° |
| 2026-05-08 19:48 | 4.56038 | -74.81725 | 20410 ft | 379 kts | 8° |
| 2026-05-08 19:49 | 4.58648 | -74.81376 | 19923 ft | 376 kts | 8° |
| 2026-05-08 19:49 | 4.61233 | -74.81033 | 19443 ft | 373 kts | 8° |
| 2026-05-08 19:49 | 4.63798 | -74.80694 | 19045 ft | 368 kts | 8° |
| 2026-05-08 19:49 | 4.66288 | -74.80366 | 18919 ft | 354 kts | 8° |
| 2026-05-08 19:50 | 4.68699 | -74.80048 | 18663 ft | 346 kts | 8° |
| 2026-05-08 19:50 | 4.71069 | -74.79734 | 18278 ft | 342 kts | 8° |
| 2026-05-08 19:50 | 4.73419 | -74.79424 | 17867 ft | 340 kts | 8° |
| 2026-05-08 19:50 | 4.75761 | -74.79123 | 17446 ft | 337 kts | 6° |
| 2026-05-08 19:51 | 4.78098 | -74.79142 | 17023 ft | 335 kts | 353° |
| 2026-05-08 19:51 | 4.80397 | -74.79466 | 16677 ft | 331 kts | 352° |
| 2026-05-08 19:51 | 4.82659 | -74.79788 | 16646 ft | 328 kts | 352° |
| 2026-05-08 19:51 | 4.84933 | -74.79980 | 16561 ft | 328 kts | 4° |
| 2026-05-08 19:52 | 4.87142 | -74.79465 | 16434 ft | 326 kts | 25° |
| 2026-05-08 19:52 | 4.89013 | -74.78213 | 16311 ft | 324 kts | 46° |
| 2026-05-08 19:52 | 4.90311 | -74.76385 | 16174 ft | 323 kts | 66° |
| 2026-05-08 19:52 | 4.90887 | -74.74218 | 16061 ft | 322 kts | 86° |
| 2026-05-08 19:53 | 4.90936 | -74.71972 | 15940 ft | 323 kts | 89° |
| 2026-05-08 19:53 | 4.90957 | -74.69722 | 15811 ft | 323 kts | 89° |
| 2026-05-08 19:53 | 4.90979 | -74.67472 | 15693 ft | 322 kts | 89° |
| 2026-05-08 19:53 | 4.91002 | -74.65227 | 15559 ft | 322 kts | 89° |
| 2026-05-08 19:54 | 4.91026 | -74.62985 | 15438 ft | 321 kts | 89° |
| 2026-05-08 19:54 | 4.91051 | -74.60748 | 15317 ft | 320 kts | 89° |
| 2026-05-08 19:54 | 4.91070 | -74.58513 | 15183 ft | 320 kts | 89° |
| 2026-05-08 19:54 | 4.91093 | -74.56317 | 15066 ft | 319 kts | 89° |
| 2026-05-08 19:55 | 4.91122 | -74.54094 | 14941 ft | 318 kts | 89° |
| 2026-05-08 19:55 | 4.91153 | -74.51889 | 14821 ft | 317 kts | 89° |
| 2026-05-08 19:55 | 4.91183 | -74.49656 | 14704 ft | 316 kts | 89° |
| 2026-05-08 19:55 | 4.91210 | -74.47452 | 14579 ft | 315 kts | 89° |
| 2026-05-08 19:56 | 4.91234 | -74.45315 | 14452 ft | 305 kts | 89° |
| 2026-05-08 19:56 | 4.91211 | -74.43222 | 14321 ft | 295 kts | 96° |
| 2026-05-08 19:56 | 4.90748 | -74.41248 | 14197 ft | 290 kts | 111° |
| 2026-05-08 19:56 | 4.89741 | -74.39397 | 13743 ft | 312 kts | 125° |
| 2026-05-08 19:57 | 4.88391 | -74.37690 | 13393 ft | 310 kts | 128° |
| 2026-05-08 19:57 | 4.87071 | -74.36025 | 13238 ft | 299 kts | 126° |
| 2026-05-08 19:57 | 4.85862 | -74.34424 | 12998 ft | 276 kts | 126° |
| 2026-05-08 19:57 | 4.84748 | -74.32940 | 12645 ft | 259 kts | 126° |
| 2026-05-08 19:58 | 4.83700 | -74.31553 | 12357 ft | 241 kts | 125° |
| 2026-05-08 19:58 | 4.82712 | -74.30250 | 12015 ft | 230 kts | 125° |
| 2026-05-08 19:58 | 4.81771 | -74.29002 | 11691 ft | 220 kts | 125° |
| 2026-05-08 19:58 | 4.80850 | -74.27786 | 11423 ft | 214 kts | 124° |
| 2026-05-08 19:59 | 4.79970 | -74.26618 | 11103 ft | 206 kts | 126° |
| 2026-05-08 19:59 | 4.79112 | -74.25494 | 10871 ft | 199 kts | 125° |
| 2026-05-08 19:59 | 4.78277 | -74.24398 | 10610 ft | 195 kts | 124° |
| 2026-05-08 19:59 | 4.77472 | -74.23318 | 10346 ft | 191 kts | 124° |
| 2026-05-08 20:00 | 4.76693 | -74.22284 | 10121 ft | 179 kts | 126° |
| 2026-05-08 20:00 | 4.75962 | -74.21326 | 9871 ft | 169 kts | 124° |
| 2026-05-08 20:00 | 4.75269 | -74.20418 | 9653 ft | 160 kts | 126° |
| 2026-05-08 20:00 | 4.74606 | -74.19540 | 9451 ft | 157 kts | 124° |
| 2026-05-08 20:01 | 4.73955 | -74.18671 | 9239 ft | 155 kts | 124° |
| 2026-05-08 20:01 | 4.73301 | -74.17806 | 9057 ft | 156 kts | 125° |
| 2026-05-08 20:01 | 4.72653 | -74.16944 | 8863 ft | 157 kts | 125° |
| 2026-05-08 20:01 | 4.71983 | -74.16061 | 8637 ft | 156 kts | 126° |
| 2026-05-08 20:02 | 4.71329 | -74.15197 | 8425 ft | 155 kts | 125° |
| 2026-05-08 20:02 | 4.70717 | -74.14390 | 8373 ft | 131 kts | 127° |
| 2026-05-08 20:02 | 4.70272 | -74.13799 | 8370 ft | 81 kts | 127° |
| 2026-05-08 20:02 | 4.70022 | -74.13469 | 8371 ft | 48 kts | 127° |
| 2026-05-08 20:03 | 4.69868 | -74.13331 | 8371 ft | 25 kts | 161° |
| 2026-05-08 20:03 | 4.69717 | -74.13305 | 8372 ft | 18 kts | 171° |
| 2026-05-08 20:03 | 4.69675 | -74.13342 | 8373 ft | 11 kts | 308° |
| 2026-05-08 20:03 | 4.69735 | -74.13412 | 8373 ft | 16 kts | 310° |
| 2026-05-08 20:04 | 4.69816 | -74.13507 | 8373 ft | 20 kts | 310° |
| 2026-05-08 20:04 | 4.69887 | -74.13623 | 8373 ft | 18 kts | 274° |
| 2026-05-08 20:04 | 4.69868 | -74.13729 | 8373 ft | 14 kts | 247° |
| 2026-05-08 20:04 | 4.69841 | -74.13780 | 8373 ft | 5 kts | 242° |
| 2026-05-08 20:05 | 4.69803 | -74.13817 | 8373 ft | 10 kts | 217° |
| 2026-05-08 20:05 | 4.69778 | -74.13836 | 8373 ft | 0 kts | 217° |